createdAt,value
2023-05-21T00:00:31.065Z,0.00
2023-05-21T00:01:31.027Z,0.00
2023-05-21T00:02:31.053Z,0.00
2023-05-21T00:03:31.114Z,0.00
2023-05-21T00:04:31.007Z,0.00
2023-05-21T00:05:31.009Z,0.00
2023-05-21T00:06:31.010Z,0.00
2023-05-21T00:07:31.012Z,0.00
2023-05-21T00:08:30.931Z,0.00
2023-05-21T00:09:30.922Z,0.00
2023-05-21T00:10:30.904Z,0.00
2023-05-21T00:11:30.976Z,0.00
2023-05-21T00:12:30.867Z,0.00
2023-05-21T00:13:30.845Z,0.00
2023-05-21T00:14:30.871Z,0.00
2023-05-21T00:15:30.840Z,0.00
2023-05-21T00:16:30.823Z,0.00
2023-05-21T00:17:30.841Z,0.00
2023-05-21T00:18:30.795Z,0.00
2023-05-21T00:19:30.834Z,0.00
2023-05-21T00:20:30.739Z,0.00
2023-05-21T00:21:30.751Z,0.00
2023-05-21T00:22:30.759Z,0.00
2023-05-21T00:23:30.749Z,0.00
2023-05-21T00:24:30.698Z,0.00
2023-05-21T00:25:30.675Z,0.00
2023-05-21T00:26:30.658Z,0.00
2023-05-21T00:27:30.714Z,0.00
2023-05-21T00:28:30.628Z,0.00
2023-05-21T00:29:30.626Z,0.00
2023-05-21T00:30:30.662Z,0.00
2023-05-21T00:31:30.650Z,0.00
2023-05-21T00:32:30.641Z,0.00
2023-05-21T00:33:30.554Z,0.00
2023-05-21T00:34:30.605Z,0.00
2023-05-21T00:35:30.539Z,0.00
2023-05-21T00:36:30.520Z,0.00
2023-05-21T00:37:30.533Z,0.00
2023-05-21T00:38:30.490Z,0.00
2023-05-21T00:39:30.483Z,0.00
2023-05-21T00:40:30.464Z,0.00
2023-05-21T00:41:30.449Z,0.00
2023-05-21T00:42:30.490Z,0.00
2023-05-21T00:43:30.435Z,0.00
2023-05-21T00:44:30.437Z,0.00
2023-05-21T00:45:30.452Z,0.00
2023-05-21T00:46:30.495Z,0.00
2023-05-21T00:47:30.398Z,0.00
2023-05-21T00:48:30.368Z,0.00
2023-05-21T00:49:30.372Z,0.00
2023-05-21T00:50:30.335Z,0.00
2023-05-21T00:51:30.449Z,0.00
2023-05-21T00:52:30.319Z,0.00
2023-05-21T00:53:30.276Z,0.00
2023-05-21T00:54:30.256Z,0.00
2023-05-21T00:55:30.264Z,0.00
2023-05-21T00:56:30.244Z,0.00
2023-05-21T00:57:30.258Z,0.00
2023-05-21T00:58:30.208Z,0.00
2023-05-21T00:59:30.203Z,0.00
2023-05-21T01:00:30.197Z,0.00
2023-05-21T01:01:30.265Z,0.00
2023-05-21T01:02:30.253Z,0.00
2023-05-21T01:03:30.217Z,0.00
2023-05-21T01:04:30.156Z,0.00
2023-05-21T01:05:30.120Z,0.00
2023-05-21T01:06:30.124Z,0.00
2023-05-21T01:07:30.096Z,0.00
2023-05-21T01:08:30.060Z,0.00
2023-05-21T01:09:30.032Z,0.00
2023-05-21T01:10:30.048Z,0.00
2023-05-21T01:11:30.025Z,0.00
2023-05-21T01:12:30.006Z,0.00
2023-05-21T01:13:29.994Z,0.00
2023-05-21T01:14:29.985Z,0.00
2023-05-21T01:15:29.950Z,0.00
2023-05-21T01:16:30.044Z,0.00
2023-05-21T01:17:30.069Z,0.00
2023-05-21T01:18:30.059Z,0.00
2023-05-21T01:19:29.945Z,0.00
2023-05-21T01:20:29.911Z,0.00
2023-05-21T01:21:29.876Z,0.00
2023-05-21T01:22:29.905Z,0.00
2023-05-21T01:23:29.908Z,0.00
2023-05-21T01:24:29.865Z,0.00
2023-05-21T01:25:29.911Z,0.00
2023-05-21T01:26:29.805Z,0.00
2023-05-21T01:27:29.846Z,0.00
2023-05-21T01:28:29.913Z,0.00
2023-05-21T01:29:29.758Z,0.00
2023-05-21T01:30:29.790Z,0.00
2023-05-21T01:31:29.754Z,0.00
2023-05-21T01:32:29.756Z,0.00
2023-05-21T01:33:29.805Z,0.00
2023-05-21T01:34:29.691Z,0.00
2023-05-21T01:35:29.718Z,0.00
2023-05-21T01:36:29.681Z,0.00
2023-05-21T01:37:29.659Z,0.00
2023-05-21T01:38:29.640Z,0.00
2023-05-21T01:39:29.628Z,0.00
2023-05-21T01:40:29.611Z,0.00
2023-05-21T01:41:29.614Z,0.00
2023-05-21T01:42:29.628Z,0.00
2023-05-21T01:43:29.579Z,0.00
2023-05-21T01:44:29.582Z,0.00
2023-05-21T01:45:29.544Z,0.00
2023-05-21T01:46:29.554Z,0.00
2023-05-21T01:47:29.569Z,0.00
2023-05-21T01:48:29.539Z,0.00
2023-05-21T01:49:29.499Z,0.00
2023-05-21T01:50:29.508Z,0.00
2023-05-21T01:51:29.480Z,0.00
2023-05-21T01:52:29.434Z,0.00
2023-05-21T01:53:29.426Z,0.00
2023-05-21T01:54:29.420Z,0.00
2023-05-21T01:55:29.400Z,0.00
2023-05-21T01:56:29.387Z,0.00
2023-05-21T01:57:29.412Z,0.00
2023-05-21T01:58:29.354Z,0.00
2023-05-21T01:59:29.353Z,0.00
2023-05-21T02:00:29.359Z,0.00
2023-05-21T02:01:29.328Z,0.00
2023-05-21T02:02:29.372Z,0.00
2023-05-21T02:03:29.425Z,0.00
2023-05-21T02:04:29.287Z,0.00
2023-05-21T02:05:29.253Z,0.00
2023-05-21T02:06:29.249Z,0.00
2023-05-21T02:07:29.267Z,0.00
2023-05-21T02:08:29.248Z,0.00
2023-05-21T02:09:29.205Z,0.00
2023-05-21T02:10:29.226Z,0.00
2023-05-21T02:11:29.164Z,0.00
2023-05-21T02:12:29.188Z,0.00
2023-05-21T02:13:29.170Z,0.00
2023-05-21T02:14:29.136Z,0.00
2023-05-21T02:15:29.146Z,0.00
2023-05-21T02:16:29.146Z,0.00
2023-05-21T02:17:29.102Z,0.00
2023-05-21T02:18:29.060Z,0.00
2023-05-21T02:19:29.086Z,0.00
2023-05-21T02:20:29.048Z,0.00
2023-05-21T02:21:29.039Z,0.00
2023-05-21T02:22:29.028Z,0.00
2023-05-21T02:23:29.017Z,0.00
2023-05-21T02:24:28.990Z,0.00
2023-05-21T02:25:28.999Z,0.00
2023-05-21T02:26:29.017Z,0.00
2023-05-21T02:27:28.943Z,0.00
2023-05-21T02:28:28.932Z,0.00
2023-05-21T02:29:28.922Z,0.00
2023-05-21T02:30:28.906Z,0.00
2023-05-21T02:31:28.913Z,0.00
2023-05-21T02:32:29.019Z,0.00
2023-05-21T02:33:28.852Z,0.00
2023-05-21T02:34:28.927Z,0.00
2023-05-21T02:35:28.834Z,0.00
2023-05-21T02:36:28.876Z,0.00
2023-05-21T02:37:28.824Z,0.00
2023-05-21T02:38:28.815Z,0.00
2023-05-21T02:39:28.816Z,0.00
2023-05-21T02:40:28.799Z,0.00
2023-05-21T02:41:28.770Z,0.00
2023-05-21T02:42:28.762Z,0.00
2023-05-21T02:43:28.753Z,0.00
2023-05-21T02:44:28.813Z,0.00
2023-05-21T02:45:28.767Z,0.00
2023-05-21T02:46:28.950Z,0.00
2023-05-21T02:47:28.843Z,0.00
2023-05-21T02:48:28.649Z,0.00
2023-05-21T02:49:29.315Z,0.00
2023-05-21T02:50:28.632Z,0.00
2023-05-21T02:51:28.619Z,0.00
2023-05-21T02:52:28.577Z,0.00
2023-05-21T02:53:28.604Z,0.00
2023-05-21T02:54:28.577Z,0.00
2023-05-21T02:55:28.562Z,0.00
2023-05-21T02:56:28.570Z,0.00
2023-05-21T02:57:28.535Z,0.00
2023-05-21T02:58:28.810Z,0.00
2023-05-21T02:59:28.638Z,0.00
2023-05-21T03:00:28.568Z,0.00
2023-05-21T03:01:28.592Z,4.00
2023-05-21T03:02:28.512Z,4.00
2023-05-21T03:03:28.631Z,4.00
2023-05-21T03:04:28.426Z,0.00
2023-05-21T03:05:28.411Z,4.00
2023-05-21T03:06:28.399Z,4.00
2023-05-21T03:07:28.428Z,4.00
2023-05-21T03:08:28.379Z,4.00
2023-05-21T03:09:28.342Z,4.00
2023-05-21T03:10:28.479Z,4.00
2023-05-21T03:11:28.439Z,8.00
2023-05-21T03:12:28.338Z,8.00
2023-05-21T03:13:28.467Z,8.00
2023-05-21T03:14:28.260Z,8.00
2023-05-21T03:15:28.285Z,8.00
2023-05-21T03:16:28.279Z,12.00
2023-05-21T03:17:28.278Z,16.00
2023-05-21T03:18:28.242Z,16.00
2023-05-21T03:19:28.345Z,16.00
2023-05-21T03:20:28.179Z,16.00
2023-05-21T03:21:28.206Z,20.00
2023-05-21T03:22:28.190Z,24.00
2023-05-21T03:23:28.140Z,24.00
2023-05-21T03:24:28.124Z,28.00
2023-05-21T03:25:28.126Z,32.00
2023-05-21T03:26:28.085Z,32.00
2023-05-21T03:27:28.068Z,40.00
2023-05-21T03:28:28.066Z,44.00
2023-05-21T03:29:28.036Z,44.00
2023-05-21T03:30:28.065Z,44.00
2023-05-21T03:31:28.087Z,52.00
2023-05-21T03:32:28.030Z,56.00
2023-05-21T03:33:27.997Z,60.00
2023-05-21T03:34:28.007Z,64.00
2023-05-21T03:35:27.971Z,72.00
2023-05-21T03:36:27.948Z,76.00
2023-05-21T03:37:27.938Z,84.00
2023-05-21T03:38:27.920Z,88.00
2023-05-21T03:39:27.898Z,100.00
2023-05-21T03:40:27.870Z,108.00
2023-05-21T03:41:27.940Z,116.00
2023-05-21T03:42:27.889Z,128.00
2023-05-21T03:43:27.829Z,136.00
2023-05-21T03:44:27.811Z,144.00
2023-05-21T03:45:27.827Z,156.00
2023-05-21T03:46:27.926Z,168.00
2023-05-21T03:47:27.800Z,180.00
2023-05-21T03:48:27.779Z,192.00
2023-05-21T03:49:27.745Z,200.00
2023-05-21T03:50:27.714Z,212.00
2023-05-21T03:51:27.765Z,224.00
2023-05-21T03:52:27.702Z,232.00
2023-05-21T03:53:27.715Z,244.00
2023-05-21T03:54:27.708Z,252.00
2023-05-21T03:55:27.661Z,264.00
2023-05-21T03:56:27.667Z,272.00
2023-05-21T03:57:27.665Z,288.00
2023-05-21T03:58:27.641Z,300.00
2023-05-21T03:59:27.620Z,312.00
2023-05-21T04:00:27.579Z,324.00
2023-05-21T04:01:27.612Z,336.00
2023-05-21T04:02:27.689Z,344.00
2023-05-21T04:03:27.872Z,356.00
2023-05-21T04:04:27.579Z,360.00
2023-05-21T04:05:27.554Z,372.00
2023-05-21T04:06:27.505Z,380.00
2023-05-21T04:07:27.502Z,388.00
2023-05-21T04:08:27.473Z,396.00
2023-05-21T04:09:27.465Z,404.00
2023-05-21T04:10:27.445Z,408.00
2023-05-21T04:11:27.534Z,420.00
2023-05-21T04:12:27.432Z,428.00
2023-05-21T04:13:27.402Z,440.00
2023-05-21T04:14:27.401Z,448.00
2023-05-21T04:15:27.443Z,460.00
2023-05-21T04:16:27.394Z,472.00
2023-05-21T04:17:27.403Z,484.00
2023-05-21T04:18:27.340Z,492.00
2023-05-21T04:19:27.364Z,496.00
2023-05-21T04:20:27.285Z,500.00
2023-05-21T04:21:27.306Z,508.00
2023-05-21T04:22:27.259Z,508.00
2023-05-21T04:23:27.285Z,520.00
2023-05-21T04:24:27.220Z,520.00
2023-05-21T04:25:27.220Z,528.00
2023-05-21T04:26:27.187Z,536.00
2023-05-21T04:27:27.298Z,544.00
2023-05-21T04:28:27.212Z,556.00
2023-05-21T04:29:27.182Z,564.00
2023-05-21T04:30:27.145Z,572.00
2023-05-21T04:31:27.241Z,576.00
2023-05-21T04:32:27.182Z,584.00
2023-05-21T04:33:27.127Z,588.00
2023-05-21T04:34:27.139Z,592.00
2023-05-21T04:35:27.099Z,596.00
2023-05-21T04:36:27.067Z,592.00
2023-05-21T04:37:27.050Z,612.00
2023-05-21T04:38:27.196Z,624.00
2023-05-21T04:39:26.995Z,632.00
2023-05-21T04:40:27.012Z,644.00
2023-05-21T04:41:26.985Z,660.00
2023-05-21T04:42:27.043Z,672.00
2023-05-21T04:43:27.012Z,692.00
2023-05-21T04:45:56.055Z,736.00
2023-05-21T04:46:56.087Z,756.00
2023-05-21T04:47:55.968Z,772.00
2023-05-21T04:48:55.962Z,784.00
2023-05-21T04:49:55.960Z,808.00
2023-05-21T04:50:56.172Z,816.00
2023-05-21T04:51:55.888Z,828.00
2023-05-21T04:52:55.870Z,836.00
2023-05-21T04:53:55.864Z,844.00
2023-05-21T04:54:56.021Z,856.00
2023-05-21T04:55:55.829Z,872.00
2023-05-21T04:56:55.852Z,888.00
2023-05-21T04:57:55.804Z,896.00
2023-05-21T04:58:55.867Z,916.00
2023-05-21T04:59:55.760Z,932.00
2023-05-21T05:00:55.777Z,956.00
2023-05-21T05:01:55.839Z,976.00
2023-05-21T05:02:55.848Z,1000.00
2023-05-21T05:03:55.759Z,1020.00
2023-05-21T05:04:55.712Z,1040.00
2023-05-21T05:05:56.258Z,1060.00
2023-05-21T05:06:55.677Z,1080.00
2023-05-21T05:07:55.666Z,1092.00
2023-05-21T05:08:55.677Z,1104.00
2023-05-21T05:09:55.669Z,1116.00
2023-05-21T05:10:55.608Z,1124.00
2023-05-21T05:11:55.624Z,1144.00
2023-05-21T05:12:55.584Z,1144.00
2023-05-21T05:13:55.622Z,1152.00
2023-05-21T05:14:55.630Z,1156.00
2023-05-21T05:15:55.557Z,1164.00
2023-05-21T05:16:55.610Z,1168.00
2023-05-21T05:17:55.545Z,1180.00
2023-05-21T05:18:57.163Z,1192.00
2023-05-21T05:19:55.499Z,1216.00
2023-05-21T05:20:55.592Z,1240.00
2023-05-21T05:21:56.510Z,1280.00
2023-05-21T05:22:55.492Z,1312.00
2023-05-21T05:23:56.674Z,1344.00
2023-05-21T05:24:55.464Z,1384.00
2023-05-21T05:25:55.471Z,1424.00
2023-05-21T05:26:55.463Z,1476.00
2023-05-21T05:27:55.376Z,1528.00
2023-05-21T05:28:55.384Z,1584.00
2023-05-21T05:29:55.500Z,1664.00
2023-05-21T05:30:55.395Z,1696.00
2023-05-21T05:31:55.322Z,1748.00
2023-05-21T05:32:55.320Z,1800.00
2023-05-21T05:33:55.344Z,1872.00
2023-05-21T05:34:55.291Z,1888.00
2023-05-21T05:35:55.357Z,1920.00
2023-05-21T05:36:55.369Z,1956.00
2023-05-21T05:37:55.243Z,1980.00
2023-05-21T05:38:55.278Z,2000.00
2023-05-21T05:39:55.971Z,2008.00
2023-05-21T05:40:55.219Z,2028.00
2023-05-21T05:41:55.188Z,2044.00
2023-05-21T05:42:55.849Z,2064.00
2023-05-21T05:43:55.305Z,2080.00
2023-05-21T05:44:55.142Z,2108.00
2023-05-21T05:45:55.174Z,2152.00
2023-05-21T05:46:55.171Z,2176.00
2023-05-21T05:47:55.243Z,2240.00
2023-05-21T05:48:55.137Z,2260.00
2023-05-21T05:49:55.088Z,2288.00
2023-05-21T05:50:55.072Z,2328.00
2023-05-21T05:51:55.104Z,2348.00
2023-05-21T05:52:55.225Z,2376.00
2023-05-21T05:53:55.035Z,2412.00
2023-05-21T05:54:55.052Z,2448.00
2023-05-21T05:55:55.023Z,2492.00
2023-05-21T05:56:55.041Z,2600.00
2023-05-21T05:57:54.969Z,2608.00
2023-05-21T05:58:54.952Z,2640.00
2023-05-21T05:59:55.906Z,2668.00
2023-05-21T06:00:55.011Z,2692.00
2023-05-21T06:01:54.958Z,2712.00
2023-05-21T06:02:55.073Z,2768.00
2023-05-21T06:03:54.917Z,2808.00
2023-05-21T06:04:55.296Z,2832.00
2023-05-21T06:05:54.927Z,2868.00
2023-05-21T06:06:55.205Z,2912.00
2023-05-21T06:07:54.836Z,2936.00
2023-05-21T06:08:54.836Z,2944.00
2023-05-21T06:09:54.795Z,2956.00
2023-05-21T06:10:54.860Z,3000.00
2023-05-21T06:11:54.925Z,3044.00
2023-05-21T06:12:54.782Z,3016.00
2023-05-21T06:13:54.754Z,3048.00
2023-05-21T06:14:54.768Z,3104.00
2023-05-21T06:15:54.806Z,3092.00
2023-05-21T06:16:54.712Z,3148.00
2023-05-21T06:17:55.075Z,3172.00
2023-05-21T06:18:54.736Z,3228.00
2023-05-21T06:19:54.656Z,3228.00
2023-05-21T06:20:54.694Z,3228.00
2023-05-21T06:21:54.652Z,3232.00
2023-05-21T06:22:54.717Z,3232.00
2023-05-21T06:23:55.280Z,3224.00
2023-05-21T06:24:54.630Z,3224.00
2023-05-21T06:25:54.593Z,3236.00
2023-05-21T06:26:54.590Z,3260.00
2023-05-21T06:27:54.632Z,3256.00
2023-05-21T06:28:54.596Z,3256.00
2023-05-21T06:29:54.531Z,3240.00
2023-05-21T06:30:54.526Z,3268.00
2023-05-21T06:31:54.503Z,3220.00
2023-05-21T06:32:54.639Z,3176.00
2023-05-21T06:33:54.706Z,3152.00
2023-05-21T06:34:54.520Z,3096.00
2023-05-21T06:35:54.469Z,3072.00
2023-05-21T06:36:54.464Z,3040.00
2023-05-21T06:37:54.430Z,3016.00
2023-05-21T06:38:54.428Z,3028.00
2023-05-21T06:39:54.430Z,3032.00
2023-05-21T06:40:54.398Z,3064.00
2023-05-21T06:41:54.390Z,3092.00
2023-05-21T06:42:54.360Z,3148.00
2023-05-21T06:43:54.411Z,3228.00
2023-05-21T06:44:54.490Z,3284.00
2023-05-21T06:45:54.389Z,3336.00
2023-05-21T06:46:54.319Z,3380.00
2023-05-21T06:47:54.987Z,3376.00
2023-05-21T06:48:54.348Z,3360.00
2023-05-21T06:49:54.284Z,3384.00
2023-05-21T06:50:54.263Z,3464.00
2023-05-21T06:51:54.260Z,3416.00
2023-05-21T06:52:54.243Z,3500.00
2023-05-21T06:53:54.307Z,3572.00
2023-05-21T06:54:54.286Z,3640.00
2023-05-21T06:55:54.193Z,3692.00
2023-05-21T06:56:54.184Z,3736.00
2023-05-21T06:57:54.301Z,3788.00
2023-05-21T06:58:54.194Z,3856.00
2023-05-21T06:59:54.192Z,3772.00
2023-05-21T07:00:54.197Z,3788.00
2023-05-21T07:01:54.130Z,3820.00
2023-05-21T07:02:54.181Z,3844.00
2023-05-21T07:03:54.087Z,3928.00
2023-05-21T07:04:54.239Z,3992.00
2023-05-21T07:06:01.595Z,4056.00
2023-05-21T07:06:54.076Z,4108.00
2023-05-21T07:07:54.052Z,4184.00
2023-05-21T07:08:54.028Z,4236.00
2023-05-21T07:09:53.994Z,4256.00
2023-05-21T07:10:54.021Z,4268.00
2023-05-21T07:11:53.999Z,4288.00
2023-05-21T07:12:54.009Z,4432.00
2023-05-21T07:13:53.934Z,4488.00
2023-05-21T07:14:53.917Z,4536.00
2023-05-21T07:15:53.988Z,4564.00
2023-05-21T07:16:53.945Z,4556.00
2023-05-21T07:17:54.047Z,4604.00
2023-05-21T07:18:53.951Z,4648.00
2023-05-21T07:19:53.853Z,4720.00
2023-05-21T07:20:53.906Z,4800.00
2023-05-21T07:21:53.854Z,4904.00
2023-05-21T07:22:53.825Z,4916.00
2023-05-21T07:23:53.820Z,4968.00
2023-05-21T07:24:53.876Z,4980.00
2023-05-21T07:25:53.814Z,5020.00
2023-05-21T07:26:53.868Z,5132.00
2023-05-21T07:27:53.758Z,5148.00
2023-05-21T07:28:53.904Z,5268.00
2023-05-21T07:29:53.788Z,5296.00
2023-05-21T07:30:53.753Z,5320.00
2023-05-21T07:31:53.806Z,5416.00
2023-05-21T07:32:53.724Z,5436.00
2023-05-21T07:33:53.677Z,5472.00
2023-05-21T07:34:54.452Z,5492.00
2023-05-21T07:35:53.664Z,5612.00
2023-05-21T07:36:53.724Z,5636.00
2023-05-21T07:37:54.201Z,5704.00
2023-05-21T07:38:53.594Z,5800.00
2023-05-21T07:39:53.608Z,5832.00
2023-05-21T07:40:53.654Z,5920.00
2023-05-21T07:41:53.636Z,5964.00
2023-05-21T07:42:53.560Z,6112.00
2023-05-21T07:43:53.646Z,6164.00
2023-05-21T07:44:53.578Z,6228.00
2023-05-21T07:45:53.542Z,6332.00
2023-05-21T07:46:54.138Z,6456.00
2023-05-21T07:47:53.550Z,6412.00
2023-05-21T07:48:53.472Z,6440.00
2023-05-21T07:49:53.482Z,6408.00
2023-05-21T07:50:53.686Z,6488.00
2023-05-21T07:51:53.455Z,6588.00
2023-05-21T07:52:53.502Z,6540.00
2023-05-21T07:53:55.268Z,6556.00
2023-05-21T07:54:53.414Z,6488.00
2023-05-21T07:55:53.401Z,6476.00
2023-05-21T07:56:53.359Z,6532.00
2023-05-21T07:57:53.381Z,6420.00
2023-05-21T07:58:53.433Z,6420.00
2023-05-21T07:59:53.652Z,6472.00
2023-05-21T08:00:53.327Z,6412.00
2023-05-21T08:01:53.309Z,6336.00
2023-05-21T08:02:53.395Z,6208.00
2023-05-21T08:03:53.535Z,6172.00
2023-05-21T08:04:53.375Z,6136.00
2023-05-21T08:05:53.360Z,6076.00
2023-05-21T08:06:53.367Z,6052.00
2023-05-21T08:07:53.230Z,6008.00
2023-05-21T08:08:53.200Z,6032.00
2023-05-21T08:09:53.321Z,6004.00
2023-05-21T08:10:53.179Z,5956.00
2023-05-21T08:11:53.174Z,5940.00
2023-05-21T08:12:53.194Z,5920.00
2023-05-21T08:13:53.164Z,5916.00
2023-05-21T08:14:53.139Z,5848.00
2023-05-21T08:15:53.677Z,5924.00
2023-05-21T08:16:53.158Z,5880.00
2023-05-21T08:17:53.121Z,5920.00
2023-05-21T08:18:53.134Z,5816.00
2023-05-21T08:19:53.151Z,5700.00
2023-05-21T08:20:53.080Z,5640.00
2023-05-21T08:21:53.255Z,5612.00
2023-05-21T08:22:53.051Z,5648.00
2023-05-21T08:23:53.023Z,5688.00
2023-05-21T08:24:53.034Z,5752.00
2023-05-21T08:25:52.986Z,5724.00
2023-05-21T08:26:52.988Z,5640.00
2023-05-21T08:27:53.026Z,5576.00
2023-05-21T08:28:52.932Z,5548.00
2023-05-21T08:29:52.975Z,5504.00
2023-05-21T08:30:52.944Z,5540.00
2023-05-21T08:31:52.969Z,5560.00
2023-05-21T08:32:52.924Z,5640.00
2023-05-21T08:33:53.014Z,5572.00
2023-05-21T08:34:52.988Z,5488.00
2023-05-21T08:35:52.897Z,5528.00
2023-05-21T08:36:52.870Z,5504.00
2023-05-21T08:37:52.851Z,5624.00
2023-05-21T08:38:52.809Z,5756.00
2023-05-21T08:39:52.817Z,5956.00
2023-05-21T08:40:52.787Z,6108.00
2023-05-21T08:41:52.783Z,6120.00
2023-05-21T08:42:52.815Z,6020.00
2023-05-21T08:43:54.904Z,6056.00
2023-05-21T08:44:53.043Z,5940.00
2023-05-21T08:45:52.997Z,6036.00
2023-05-21T08:46:52.713Z,6040.00
2023-05-21T08:47:52.741Z,6052.00
2023-05-21T08:48:53.390Z,6084.00
2023-05-21T08:49:52.693Z,6216.00
2023-05-21T08:50:52.660Z,5996.00
2023-05-21T08:51:52.866Z,6012.00
2023-05-21T08:52:52.638Z,6048.00
2023-05-21T08:53:52.626Z,6164.00
2023-05-21T08:54:52.610Z,6020.00
2023-05-21T08:55:52.622Z,5976.00
2023-05-21T08:56:52.585Z,6044.00
2023-05-21T08:57:52.725Z,6016.00
2023-05-21T08:58:52.542Z,6080.00
2023-05-21T08:59:52.555Z,6048.00
2023-05-21T09:00:52.564Z,6028.00
2023-05-21T09:01:52.733Z,6100.00
2023-05-21T09:02:52.598Z,6108.00
2023-05-21T09:03:52.616Z,6300.00
2023-05-21T09:04:52.462Z,6676.00
2023-05-21T09:05:54.003Z,6896.00
2023-05-21T09:06:55.880Z,7000.00
2023-05-21T09:07:52.771Z,7300.00
2023-05-21T09:08:52.423Z,7240.00
2023-05-21T09:09:52.395Z,7308.00
2023-05-21T09:10:52.440Z,7412.00
2023-05-21T09:12:02.369Z,7488.00
2023-05-21T09:12:53.885Z,7548.00
2023-05-21T09:13:52.370Z,7384.00
2023-05-21T09:14:52.363Z,7468.00
2023-05-21T09:15:52.430Z,7464.00
2023-05-21T09:16:52.417Z,7424.00
2023-05-21T09:17:52.394Z,7376.00
2023-05-21T09:18:52.301Z,7492.00
2023-05-21T09:19:52.929Z,7664.00
2023-05-21T09:20:52.271Z,7736.00
2023-05-21T09:21:52.297Z,8048.00
2023-05-21T09:22:52.272Z,7928.00
2023-05-21T09:23:52.863Z,7772.00
2023-05-21T09:24:52.193Z,7656.00
2023-05-21T09:25:52.195Z,7880.00
2023-05-21T09:26:52.183Z,7852.00
2023-05-21T09:27:52.187Z,7688.00
2023-05-21T09:28:52.236Z,7700.00
2023-05-21T09:29:52.128Z,7756.00
2023-05-21T09:30:52.108Z,7624.00
2023-05-21T09:31:52.140Z,7712.00
2023-05-21T09:32:52.271Z,7592.00
2023-05-21T09:33:52.132Z,7652.00
2023-05-21T09:34:52.147Z,7640.00
2023-05-21T09:35:52.082Z,7624.00
2023-05-21T09:36:52.050Z,7628.00
2023-05-21T09:37:52.947Z,7660.00
2023-05-21T09:38:52.375Z,7692.00
2023-05-21T09:39:52.012Z,7624.00
2023-05-21T09:40:52.044Z,7664.00
2023-05-21T09:41:52.010Z,7700.00
2023-05-21T09:42:52.135Z,7520.00
2023-05-21T09:43:51.964Z,7444.00
2023-05-21T09:44:51.968Z,7504.00
2023-05-21T09:45:52.102Z,7456.00
2023-05-21T09:46:51.958Z,7480.00
2023-05-21T09:47:52.406Z,7404.00
2023-05-21T09:48:52.211Z,7312.00
2023-05-21T09:49:51.855Z,7308.00
2023-05-21T09:50:52.058Z,7328.00
2023-05-21T09:51:51.995Z,7144.00
2023-05-21T09:52:51.880Z,7276.00
2023-05-21T09:53:51.822Z,7104.00
2023-05-21T09:54:51.800Z,7136.00
2023-05-21T09:55:51.801Z,7116.00
2023-05-21T09:56:52.028Z,7108.00
2023-05-21T09:57:51.819Z,7124.00
2023-05-21T09:58:51.771Z,7128.00
2023-05-21T09:59:51.808Z,7088.00
2023-05-21T10:00:51.756Z,7068.00
2023-05-21T10:01:51.828Z,7152.00
2023-05-21T10:02:52.620Z,7176.00
2023-05-21T10:03:51.700Z,7168.00
2023-05-21T10:04:51.989Z,7160.00
2023-05-21T10:05:51.751Z,7140.00
2023-05-21T10:06:51.660Z,7208.00
2023-05-21T10:07:51.631Z,7192.00
2023-05-21T10:08:51.652Z,7388.00
2023-05-21T10:09:51.764Z,7432.00
2023-05-21T10:10:51.585Z,7564.00
2023-05-21T10:11:51.668Z,7520.00
2023-05-21T10:12:51.860Z,7480.00
2023-05-21T10:13:51.573Z,7332.00
2023-05-21T10:14:51.543Z,7356.00
2023-05-21T10:15:51.569Z,7288.00
2023-05-21T10:16:51.595Z,7172.00
2023-05-21T10:17:51.560Z,7240.00
2023-05-21T10:18:51.565Z,7144.00
2023-05-21T10:19:51.534Z,6980.00
2023-05-21T10:20:51.474Z,6940.00
2023-05-21T10:21:52.598Z,7120.00
2023-05-21T10:22:51.519Z,6840.00
2023-05-21T10:23:51.415Z,6672.00
2023-05-21T10:24:51.400Z,6608.00
2023-05-21T10:25:51.559Z,6492.00
2023-05-21T10:26:51.373Z,6472.00
2023-05-21T10:27:51.377Z,6364.00
2023-05-21T10:28:51.329Z,6356.00
2023-05-21T10:29:51.375Z,6752.00
2023-05-21T10:30:51.329Z,6616.00
2023-05-21T10:31:51.359Z,6612.00
2023-05-21T10:32:51.589Z,6504.00
2023-05-21T10:33:51.305Z,6352.00
2023-05-21T10:34:51.284Z,6520.00
2023-05-21T10:35:53.110Z,6840.00
2023-05-21T10:36:51.346Z,7088.00
2023-05-21T10:37:51.414Z,7128.00
2023-05-21T10:38:51.235Z,7324.00
2023-05-21T10:39:51.273Z,7228.00
2023-05-21T10:40:51.240Z,7252.00
2023-05-21T10:41:53.775Z,7356.00
2023-05-21T10:42:51.193Z,7588.00
2023-05-21T10:43:51.165Z,7612.00
2023-05-21T10:44:51.150Z,7680.00
2023-05-21T10:45:51.159Z,7720.00
2023-05-21T10:46:51.134Z,7344.00
2023-05-21T10:47:52.903Z,7344.00
2023-05-21T10:48:51.122Z,7480.00
2023-05-21T10:49:51.109Z,7568.00
2023-05-21T10:50:51.062Z,7592.00
2023-05-21T10:51:51.038Z,7672.00
2023-05-21T10:52:51.088Z,7080.00
2023-05-21T10:53:51.046Z,7376.00
2023-05-21T10:54:51.011Z,7416.00
2023-05-21T10:55:51.066Z,7256.00
2023-05-21T10:56:51.018Z,7184.00
2023-05-21T10:57:51.304Z,7076.00
2023-05-21T10:58:50.932Z,6932.00
2023-05-21T10:59:50.951Z,6856.00
2023-05-21T11:00:51.005Z,6452.00
2023-05-21T11:01:50.960Z,6516.00
2023-05-21T11:02:51.093Z,6436.00
2023-05-21T11:03:50.924Z,6568.00
2023-05-21T11:04:50.857Z,6612.00
2023-05-21T11:05:50.867Z,6564.00
2023-05-21T11:06:50.912Z,6336.00
2023-05-21T11:07:50.850Z,6248.00
2023-05-21T11:08:52.187Z,6072.00
2023-05-21T11:09:50.862Z,5708.00
2023-05-21T11:10:51.573Z,5640.00
2023-05-21T11:11:50.858Z,5416.00
2023-05-21T11:12:50.771Z,5340.00
2023-05-21T11:13:50.775Z,5364.00
2023-05-21T11:14:50.725Z,5240.00
2023-05-21T11:15:50.788Z,5276.00
2023-05-21T11:16:50.839Z,5292.00
2023-05-21T11:17:50.737Z,5268.00
2023-05-21T11:18:50.828Z,5212.00
2023-05-21T11:19:50.674Z,5096.00
2023-05-21T11:20:50.665Z,5032.00
2023-05-21T11:21:50.749Z,4984.00
2023-05-21T11:22:50.702Z,4984.00
2023-05-21T11:23:50.624Z,4976.00
2023-05-21T11:24:51.149Z,5000.00
2023-05-21T11:25:50.629Z,5044.00
2023-05-21T11:26:50.703Z,5196.00
2023-05-21T11:27:50.662Z,5320.00
2023-05-21T11:28:50.576Z,5428.00
2023-05-21T11:29:50.581Z,5488.00
2023-05-21T11:30:50.526Z,5820.00
2023-05-21T11:31:50.532Z,5832.00
2023-05-21T11:32:50.741Z,6036.00
2023-05-21T11:33:50.593Z,6032.00
2023-05-21T11:34:50.815Z,6004.00
2023-05-21T11:35:50.469Z,6032.00
2023-05-21T11:36:50.542Z,6076.00
2023-05-21T11:37:50.440Z,6340.00
2023-05-21T11:38:50.574Z,6484.00
2023-05-21T11:39:50.486Z,6716.00
2023-05-21T11:40:50.419Z,7024.00
2023-05-21T11:41:50.408Z,7044.00
2023-05-21T11:42:50.420Z,6784.00
2023-05-21T11:43:50.427Z,6940.00
2023-05-21T11:44:50.431Z,6808.00
2023-05-21T11:45:50.366Z,6872.00
2023-05-21T11:46:50.354Z,6940.00
2023-05-21T11:47:50.937Z,7320.00
2023-05-21T11:48:50.318Z,7512.00
2023-05-21T11:49:50.466Z,8200.00
2023-05-21T11:50:50.261Z,9128.00
2023-05-21T11:51:50.268Z,9576.00
2023-05-21T11:52:50.269Z,9472.00
2023-05-21T11:53:50.247Z,8740.00
2023-05-21T11:55:00.086Z,8184.00
2023-05-21T11:55:50.279Z,8040.00
2023-05-21T11:56:50.213Z,7888.00
2023-05-21T11:57:54.386Z,7632.00
2023-05-21T11:58:50.197Z,7340.00
2023-05-21T11:59:50.287Z,6916.00
2023-05-21T12:00:50.136Z,6772.00
2023-05-21T12:01:51.311Z,6472.00
2023-05-21T12:02:50.345Z,6440.00
2023-05-21T12:03:50.190Z,6664.00
2023-05-21T12:04:50.114Z,6976.00
2023-05-21T12:05:50.177Z,7044.00
2023-05-21T12:06:50.098Z,7204.00
2023-05-21T12:07:50.359Z,6876.00
2023-05-21T12:08:50.851Z,7096.00
2023-05-21T12:09:50.126Z,7304.00
2023-05-21T12:10:50.035Z,7268.00
2023-05-21T12:11:50.050Z,7460.00
2023-05-21T12:12:54.730Z,7544.00
2023-05-21T12:13:51.032Z,7516.00
2023-05-21T12:14:49.939Z,7872.00
2023-05-21T12:15:49.992Z,8456.00
2023-05-21T12:16:50.233Z,8440.00
2023-05-21T12:17:49.953Z,8580.00
2023-05-21T12:18:49.973Z,8180.00
2023-05-21T12:19:50.519Z,8068.00
2023-05-21T12:20:50.077Z,7876.00
2023-05-21T12:21:49.892Z,7848.00
2023-05-21T12:22:49.883Z,7728.00
2023-05-21T12:23:49.940Z,7784.00
2023-05-21T12:24:49.881Z,7672.00
2023-05-21T12:25:49.810Z,7672.00
2023-05-21T12:26:49.859Z,7484.00
2023-05-21T12:27:49.782Z,7448.00
2023-05-21T12:28:49.816Z,7404.00